Hafnia Bering — 9V3278 — position and weather

sailwx.info

Track history (hours):
 
Tides and Currents Weather Stations Pressure Air Temp Water Temp Dewpoint Dewpoint Depression Visibility Wind Speed Wind Dir Waves Ship Positions

Hafnia Bering

Last reported at 2018-Jul-22 14:00 UTC. Time now 2018-Jul-22 14:30 UTC.
Position N 56°58' E 019°30'.

Length 184 m; draft 7.6 m.

Type: Tanker. MMSI: 566255000.

Date/timePositionNaut miles runAvg speedWind from/ knotsBaromVisibWave heightAir tempDewpointWater temp
2018-Jul-22 14:00N 56°58' E 019°30'612.2
2018-Jul-22 13:29N 56°53' E 019°24'2112.4
2018-Jul-22 11:48N 56°35' E 019°06'412.6
2018-Jul-22 11:29N 56°31' E 019°02'612.4
2018-Jul-22 11:00N 56°26' E 018°57'2812.0
2018-Jul-22 08:39N 56°07' E 018°18'212.2
2018-Jul-22 08:29N 56°06' E 018°15'612.2
2018-Jul-22 07:59N 56°03' E 018°06'812.2
2018-Jul-22 07:20N 55°59' E 017°54'412.2
2018-Jul-22 07:00N 55°57' E 017°47'1312.2
2018-Jul-22 05:55N 55°53' E 017°25'512.1
2018-Jul-22 05:30N 55°51' E 017°17'612.1
2018-Jul-22 05:00N 55°50' E 017°06'612.0
2018-Jul-22 04:30N 55°48' E 016°56'611.9
2018-Jul-22 04:00N 55°47' E 016°45'611.8
2018-Jul-22 03:30N 55°46' E 016°35'611.9
2018-Jul-22 03:00N 55°44' E 016°25'611.9
2018-Jul-22 02:30N 55°43' E 016°15'612.0
2018-Jul-22 02:00N 55°41' E 016°04'612.0
2018-Jul-22 01:30N 55°40' E 015°54'612.1
2018-Jul-22 01:00N 55°39' E 015°44'612.2
2018-Jul-22 00:30N 55°37' E 015°33'612.3
2018-Jul-22 00:00N 55°35' E 015°23'612.2
2018-Jul-21 23:30N 55°33' E 015°13'612.1
2018-Jul-21 23:00N 55°30' E 015°03'612.1
2018-Jul-21 22:30N 55°28' E 014°53'612.2
2018-Jul-21 22:00N 55°25' E 014°43'611.7
2018-Jul-21 21:30N 55°22' E 014°36'611.7
2018-Jul-21 21:00N 55°17' E 014°29'611.7
2018-Jul-21 20:30N 55°12' E 014°23'611.2
2018-Jul-21 20:00N 55°10' E 014°14'611.6
2018-Jul-21 19:30N 55°10' E 014°04'611.9
2018-Jul-21 19:00N 55°10' E 013°54'611.7
2018-Jul-21 18:30N 55°11' E 013°43'611.7
2018-Jul-21 18:00N 55°12' E 013°33'611.8
2018-Jul-21 17:30N 55°12' E 013°23'612.0
2018-Jul-21 17:00N 55°13' E 013°12'612.0
2018-Jul-21 16:30N 55°14' E 013°02'611.9
2018-Jul-21 16:00N 55°15' E 012°52'612.0
2018-Jul-21 15:30N 55°17' E 012°42'5 9.5
2018-Jul-21 15:00N 55°22' E 012°38'611.8
2018-Jul-21 14:30N 55°27' E 012°41'10 9.7
2018-Jul-21 13:30N 55°35' E 012°50'5 9.4
2018-Jul-21 13:00N 55°39' E 012°56'612.0
2018-Jul-21 12:29N 55°44' E 012°51'612.7
2018-Jul-21 12:00N 55°50' E 012°46'713.4
2018-Jul-21 11:31N 55°56' E 012°43'713.6
2018-Jul-21 11:01N 56°03' E 012°39'713.0
2018-Jul-21 10:30N 56°07' E 012°31'4 8.6
2018-Jul-21 10:00N 56°10' E 012°25'4 8.2
2018-Jul-21 09:30N 56°12' E 012°18'28 9.3
2018-Jul-21 06:28N 56°37' E 011°56'612.3
2018-Jul-21 05:59N 56°43' E 011°53'612.2
2018-Jul-21 05:30N 56°49' E 011°50'612.2
2018-Jul-21 05:00N 56°54' E 011°47'611.8
2018-Jul-21 04:30N 56°60' E 011°43'611.8
2018-Jul-21 04:00N 57°05' E 011°39'611.9
2018-Jul-21 03:31N 57°11' E 011°35'612.2
2018-Jul-21 03:00N 57°17' E 011°31'612.6
2018-Jul-21 02:31N 57°23' E 011°28'612.5
2018-Jul-21 02:00N 57°28' E 011°23'612.7
2018-Jul-21 01:31N 57°32' E 011°14'611.7
2018-Jul-21 01:00N 57°36' E 011°06'612.3
2018-Jul-21 00:30N 57°41' E 010°58'612.7
2018-Jul-21 00:00N 57°45' E 010°49'713.4
2018-Jul-20 23:31N 57°47' E 010°37'714.4
2018-Jul-20 23:00N 57°47' E 010°23'713.2
2018-Jul-20 22:30N 57°47' E 010°11'612.6
2018-Jul-20 22:00N 57°46' E 009°59'612.4
2018-Jul-20 21:30N 57°46' E 009°47'612.7
2018-Jul-20 21:00N 57°46' E 009°36'612.4
2018-Jul-20 20:30N 57°44' E 009°25'612.3
2018-Jul-20 20:00N 57°41' E 009°14'612.4
2018-Jul-20 19:30N 57°39' E 009°03'612.3
2018-Jul-20 19:00N 57°37' E 008°52'612.5
2018-Jul-20 18:30N 57°35' E 008°41'612.8
2018-Jul-20 18:00N 57°31' E 008°32'713.2
2018-Jul-20 17:30N 57°28' E 008°21'813.0
2018-Jul-20 16:54N 57°23' E 008°10'512.6
2018-Jul-20 16:30N 57°20' E 008°02'712.3
2018-Jul-20 15:58N 57°16' E 007°52'812.7
2018-Jul-20 15:18N 57°11' E 007°39'1712.8
2018-Jul-20 13:58N 57°01' E 007°14'612.7
2018-Jul-20 13:30N 56°56' E 007°09'2812.6
2018-Jul-20 11:18N 56°31' E 006°48'5212.4
2018-Jul-20 07:08N 55°44' E 006°08'212.6
2018-Jul-20 07:00N 55°42' E 006°07'712.7
2018-Jul-20 06:28N 55°36' E 006°02'812.5
2018-Jul-20 05:51N 55°29' E 005°57'412.3
2018-Jul-20 05:30N 55°25' E 005°54'612.4
2018-Jul-20 04:59N 55°19' E 005°50'612.6
2018-Jul-20 04:30N 55°14' E 005°46'612.6
2018-Jul-20 04:00N 55°08' E 005°42'712.6
2018-Jul-20 03:26N 55°01' E 005°37'812.3
2018-Jul-20 02:48N 54°54' E 005°32'1112.4
2018-Jul-20 01:52N 54°43' E 005°24'3812.4
2018-Jul-19 22:51N 54°11' E 004°51'512.4
2018-Jul-19 22:28N 54°08' E 004°45'1512.1
2018-Jul-19 21:13N 53°54' E 004°34'312.6
2018-Jul-19 21:00N 53°52' E 004°31'712.4
2018-Jul-19 20:27N 53°47' E 004°23'512.4
2018-Jul-19 20:00N 53°44' E 004°16'612.2
2018-Jul-19 19:29N 53°40' E 004°07'712.1
2018-Jul-19 18:55N 53°36' E 003°58'511.7
2018-Jul-19 18:30N 53°33' E 003°51'611.6
2018-Jul-19 18:00N 53°29' E 003°44'612.2
2018-Jul-19 17:29N 53°23' E 003°40'612.0
2018-Jul-19 16:59N 53°18' E 003°36'812.0
2018-Jul-19 16:19N 53°10' E 003°30'412.1
2018-Jul-19 16:00N 53°07' E 003°28'612.0
2018-Jul-19 15:29N 53°01' E 003°24'611.8
2018-Jul-19 15:00N 52°56' E 003°21'611.7
2018-Jul-19 14:30N 52°51' E 003°17'1111.2
2018-Jul-19 13:30N 52°41' E 003°09'510.9
2018-Jul-19 13:00N 52°36' E 003°05'510.9
2018-Jul-19 12:30N 52°31' E 003°01'611.5
2018-Jul-19 12:00N 52°26' E 003°07'611.9
2018-Jul-19 11:30N 52°22' E 003°14'612.1
2018-Jul-19 11:00N 52°17' E 003°21'612.2
2018-Jul-19 10:30N 52°13' E 003°27'611.9
2018-Jul-19 10:00N 52°09' E 003°34'4 7.0
2018-Jul-19 09:28N 52°09' E 003°40'0 0.0
2018-Jul-19 08:58N 52°09' E 003°40'0 0.0
2018-Jul-19 08:28N 52°09' E 003°40'0 0.0
2018-Jul-19 07:58N 52°09' E 003°40'0 0.0
2018-Jul-19 07:28N 52°09' E 003°40'0 0.0
2018-Jul-19 06:58N 52°09' E 003°40'0 0.2
2018-Jul-19 06:30N 52°09' E 003°40'3 6.9
2018-Jul-19 06:00N 52°07' E 003°44'510.9
2018-Jul-19 05:30N 52°04' E 003°52'510.0
2018-Jul-19 05:00N 52°01' E 003°59'510.2
2018-Jul-19 04:30N 51°58' E 004°05'1 1.7
2018-Jul-19 03:42N 51°57' E 004°06'0 0.0
2018-Jul-19 03:21N 51°57' E 004°06'0 0.0
2018-Jul-19 03:00N 51°57' E 004°06'0 0.0
2018-Jul-19 02:18N 51°57' E 004°06'0 0.0
2018-Jul-19 02:00N 51°57' E 004°06'0 0.0
2018-Jul-19 01:27N 51°57' E 004°06'0 0.0
2018-Jul-19 00:36N 51°57' E 004°06'0 0.0
2018-Jul-19 00:24N 51°57' E 004°06'0 0.0
2018-Jul-19 00:00N 51°57' E 004°06'0 0.0
2018-Jul-18 23:24N 51°57' E 004°06'0 0.0
2018-Jul-18 22:51N 51°57' E 004°06'0 0.0
2018-Jul-18 22:30N 51°57' E 004°06'0 0.0
2018-Jul-18 21:54N 51°57' E 004°06'0 0.0
2018-Jul-18 21:12N 51°57' E 004°06'0 0.0
2018-Jul-18 21:00N 51°57' E 004°06'0 0.0
2018-Jul-18 20:06N 51°57' E 004°06'0 0.0
2018-Jul-18 20:00N 51°57' E 004°06'0 0.0
2018-Jul-18 19:18N 51°57' E 004°06'0 0.0
2018-Jul-18 18:54N 51°57' E 004°06'0 0.0
2018-Jul-18 18:24N 51°57' E 004°06'0 0.0
2018-Jul-18 17:45N 51°57' E 004°06'0 0.0
2018-Jul-18 17:30N 51°57' E 004°06'0 0.0
2018-Jul-18 16:57N 51°57' E 004°06'0 0.0
2018-Jul-18 16:03N 51°57' E 004°06'0 0.0
2018-Jul-18 15:45N 51°57' E 004°06'0 0.0
2018-Jul-18 15:30N 51°57' E 004°06'0 0.0
2018-Jul-18 14:36N 51°57' E 004°06'0 0.0
2018-Jul-18 14:30N 51°57' E 004°06'0 0.0
2018-Jul-18 13:12N 51°57' E 004°06'0 0.0
2018-Jul-18 12:45N 51°57' E 004°06'0 0.0
2018-Jul-18 12:21N 51°57' E 004°06'0 0.0
2018-Jul-18 11:45N 51°57' E 004°06'0 0.0
2018-Jul-18 10:21N 51°57' E 004°06'0 0.0
2018-Jul-18 10:00N 51°57' E 004°06'0 0.0
2018-Jul-18 09:24N 51°57' E 004°06'0 0.0
2018-Jul-18 08:54N 51°57' E 004°06'0 0.0
2018-Jul-18 08:18N 51°57' E 004°06'0 0.0
2018-Jul-18 08:00N 51°57' E 004°06'0 0.0
2018-Jul-18 07:06N 51°57' E 004°06'0 0.1
2018-Jul-18 07:00N 51°57' E 004°06'0 0.0
2018-Jul-18 06:09N 51°57' E 004°06'0 0.0
2018-Jul-18 06:00N 51°57' E 004°06'0 0.0
2018-Jul-18 05:12N 51°57' E 004°06'0 0.0
2018-Jul-18 05:00N 51°57' E 004°06'0 0.0
2018-Jul-18 04:30N 51°57' E 004°06'0 0.0
2018-Jul-18 03:57N 51°57' E 004°06'0 0.0
2018-Jul-18 03:15N 51°57' E 004°06'0 0.0
2018-Jul-18 02:54N 51°57' E 004°06'0 0.0
2018-Jul-18 02:30N 51°57' E 004°06'0 0.0
2018-Jul-18 01:30N 51°57' E 004°06'0 0.0
2018-Jul-18 01:00N 51°57' E 004°06'0 0.0
2018-Jul-18 00:27N 51°57' E 004°06'0 0.0
2018-Jul-17 23:51N 51°57' E 004°06'0 0.0
2018-Jul-17 23:30N 51°57' E 004°06'0 0.0
2018-Jul-17 22:54N 51°57' E 004°06'0 0.0
2018-Jul-17 22:27N 51°57' E 004°06'0 0.0
2018-Jul-17 21:54N 51°57' E 004°06'0 0.0
2018-Jul-17 21:30N 51°57' E 004°06'0 0.0
2018-Jul-17 21:00N 51°57' E 004°06'0 0.0
2018-Jul-17 19:57N 51°57' E 004°06'0 0.0
2018-Jul-17 19:30N 51°57' E 004°06'0 0.0
2018-Jul-17 18:57N 51°57' E 004°06'0 0.0
2018-Jul-17 18:21N 51°57' E 004°06'0 0.0
2018-Jul-17 17:54N 51°57' E 004°06'0 0.0
2018-Jul-17 17:30N 51°57' E 004°06'0 0.0
2018-Jul-17 16:45N 51°57' E 004°06'0 0.0
2018-Jul-17 16:30N 51°57' E 004°06'0 0.0
2018-Jul-17 15:39N 51°57' E 004°06'0 0.0
2018-Jul-17 15:30N 51°57' E 004°06'0 0.0
2018-Jul-17 15:00N 51°57' E 004°06'0 0.0
2018-Jul-17 14:27N 51°57' E 004°06'0 0.0
2018-Jul-17 13:57N 51°57' E 004°06'0 0.0
2018-Jul-17 13:27N 51°57' E 004°06'0 0.0
2018-Jul-17 12:57N 51°57' E 004°06'0 0.0
2018-Jul-17 12:30N 51°57' E 004°06'0 0.0
2018-Jul-17 11:54N 51°57' E 004°06'0 0.0
2018-Jul-17 11:24N 51°57' E 004°06'0 0.0
2018-Jul-17 10:57N 51°57' E 004°06'0 0.0
2018-Jul-17 10:27N 51°57' E 004°06'0 0.0
2018-Jul-17 09:45N 51°57' E 004°06'0 0.0
2018-Jul-17 09:27N 51°57' E 004°06'0 0.0
2018-Jul-17 09:00N 51°57' E 004°06'0 0.0
2018-Jul-17 08:30N 51°57' E 004°06'0 0.0
2018-Jul-17 07:57N 51°57' E 004°06'0 0.0
2018-Jul-17 07:27N 51°57' E 004°06'0 0.0
2018-Jul-17 06:51N 51°57' E 004°06'0 0.0
2018-Jul-17 06:21N 51°57' E 004°06'0 0.0
2018-Jul-17 05:57N 51°57' E 004°06'0 0.0
2018-Jul-17 05:27N 51°57' E 004°06'0 0.0
2018-Jul-17 04:57N 51°57' E 004°06'0 0.0
2018-Jul-17 04:24N 51°57' E 004°06'0 0.0
2018-Jul-17 03:57N 51°57' E 004°06'0 0.0
2018-Jul-17 03:21N 51°57' E 004°06'0 0.0
2018-Jul-17 02:51N 51°57' E 004°06'0 0.0
2018-Jul-17 01:54N 51°57' E 004°06'0 0.0
2018-Jul-17 01:24N 51°57' E 004°06'0 0.0
2018-Jul-17 00:57N 51°57' E 004°06'0 0.1
2018-Jul-17 00:30N 51°57' E 004°06'4 4.2
2018-Jul-16 23:30N 51°60' E 004°01'611.1
2018-Jul-16 23:00N 52°00' E 003°52'4 8.3
2018-Jul-16 22:30N 52°01' E 003°45'611.3
2018-Jul-16 22:00N 52°04' E 003°38'5 9.8
2018-Jul-16 21:30N 52°07' E 003°31'4 8.7
2018-Jul-16 21:00N 52°09' E 003°25'611.3
2018-Jul-16 20:30N 52°13' E 003°19'612.0
2018-Jul-16 20:00N 52°19' E 003°15'611.7
2018-Jul-16 19:30N 52°24' E 003°10'711.5
2018-Jul-16 18:51N 52°31' E 003°04'411.0
2018-Jul-16 18:28N 52°34' E 003°01'5 9.8
2018-Jul-16 18:00N 52°39' E 003°03'510.8
2018-Jul-16 17:30N 52°44' E 003°07'510.8
2018-Jul-16 17:00N 52°48' E 003°12'610.8
2018-Jul-16 16:28N 52°54' E 003°15'511.1
2018-Jul-16 16:00N 52°59' E 003°18'611.6
2018-Jul-16 15:30N 53°04' E 003°20'712.2
2018-Jul-16 14:56N 53°11' E 003°24'712.6
2018-Jul-16 14:24N 53°17' E 003°27'4712.0
2018-Jul-16 10:31N 53°56' E 004°10'012.1
2018-Jul-16 10:31N 53°56' E 004°10'911.7
2018-Jul-16 09:45N 54°02' E 004°22'311.7
2018-Jul-16 09:30N 54°03' E 004°26'611.7
2018-Jul-16 09:00N 54°08' E 004°32'611.9
2018-Jul-16 08:30N 54°13' E 004°37'612.0
2018-Jul-16 08:01N 54°18' E 004°43'22712.4
2018-Jul-15 13:46N 57°26' E 008°28'311.9
2018-Jul-15 13:30N 57°29' E 008°31'2911.5
2018-Jul-15 11:00N 57°42' E 009°19'912.0
2018-Jul-15 10:14N 57°45' E 009°35'312.1
2018-Jul-15 10:00N 57°46' E 009°40'612.2
2018-Jul-15 09:30N 57°48' E 009°50'611.7
2018-Jul-15 09:00N 57°48' E 010°01'511.0
2018-Jul-15 08:30N 57°48' E 010°12'510.7
2018-Jul-15 08:01N 57°48' E 010°22'510.6
2018-Jul-15 07:31N 57°48' E 010°31'510.1
2018-Jul-15 07:00N 57°48' E 010°41'5 9.6
2018-Jul-15 06:31N 57°46' E 010°49'510.2
2018-Jul-15 06:00N 57°43' E 010°57'5 9.7
2018-Jul-15 05:30N 57°39' E 011°03'611.5
2018-Jul-15 05:00N 57°35' E 011°11'611.7
2018-Jul-15 04:30N 57°31' E 011°19'611.9
2018-Jul-15 04:00N 57°27' E 011°26'612.5
2018-Jul-15 03:31N 57°21' E 011°30'612.5
2018-Jul-15 03:01N 57°15' E 011°34'612.6
2018-Jul-15 02:30N 57°09' E 011°38'612.6
2018-Jul-15 02:01N 57°03' E 011°42'612.8
2018-Jul-15 01:31N 56°57' E 011°46'612.5
2018-Jul-15 01:01N 56°52' E 011°50'611.8
2018-Jul-15 00:31N 56°46' E 011°53'611.9
2018-Jul-15 00:01N 56°41' E 011°49'612.3
2018-Jul-14 23:30N 56°35' E 011°43'612.3
2018-Jul-14 22:59N 56°30' E 011°37'612.0
2018-Jul-14 22:28N 56°24' E 011°32'611.9
2018-Jul-14 21:59N 56°19' E 011°26'612.0
2018-Jul-14 21:30N 56°14' E 011°21'5210.8
2018-Jul-14 16:40N 55°23' E 011°01'412.0
2018-Jul-14 16:20N 55°19' E 011°03'612.1
2018-Jul-14 15:51N 55°14' E 011°06'411.7
2018-Jul-14 15:29N 55°10' E 011°03'612.1
2018-Jul-14 15:01N 55°04' E 011°02'611.8
2018-Jul-14 14:30N 54°58' E 010°58'1110.8
2018-Jul-14 13:31N 54°49' E 010°50'611.8
2018-Jul-14 13:00N 54°43' E 010°47'510.5
2018-Jul-14 12:31N 54°39' E 010°52'611.9
2018-Jul-14 12:01N 54°36' E 011°01'611.8
2018-Jul-14 11:31N 54°36' E 011°12'611.5
2018-Jul-14 11:01N 54°33' E 011°20'612.2
2018-Jul-14 10:30N 54°31' E 011°30'611.6
2018-Jul-14 10:00N 54°28' E 011°39'611.7
2018-Jul-14 09:30N 54°26' E 011°48'611.8
2018-Jul-14 09:01N 54°26' E 011°58'611.8
2018-Jul-14 08:30N 54°26' E 012°09'611.3
2018-Jul-14 08:01N 54°31' E 012°13'611.4
2018-Jul-14 07:31N 54°36' E 012°17'5 9.3
2018-Jul-14 07:00N 54°39' E 012°24'5 9.7
2018-Jul-14 06:30N 54°42' E 012°31'611.9
2018-Jul-14 06:00N 54°45' E 012°39'611.8
2018-Jul-14 05:31N 54°48' E 012°48'611.6
2018-Jul-14 05:01N 54°50' E 012°57'612.1
2018-Jul-14 04:31N 54°52' E 013°07'612.4
2018-Jul-14 04:00N 54°54' E 013°18'712.3
2018-Jul-14 03:28N 54°56' E 013°29'611.9
2018-Jul-14 02:55N 54°59' E 013°39'511.6
2018-Jul-14 02:30N 55°00' E 013°47'712.0
2018-Jul-14 01:58N 55°02' E 013°58'612.1
2018-Jul-14 01:30N 55°05' E 014°06'612.5
2018-Jul-14 01:01N 55°10' E 014°13'612.3
2018-Jul-14 00:31N 55°15' E 014°19'612.3
2018-Jul-14 00:00N 55°20' E 014°26'612.5
2018-Jul-13 23:30N 55°25' E 014°33'612.5
2018-Jul-13 23:00N 55°29' E 014°41'612.6
2018-Jul-13 22:31N 55°31' E 014°51'612.6
2018-Jul-13 22:00N 55°34' E 015°02'612.4
2018-Jul-13 21:30N 55°37' E 015°11'612.3
2018-Jul-13 21:01N 55°39' E 015°21'612.2
2018-Jul-13 20:30N 55°41' E 015°32'612.2
2018-Jul-13 20:00N 55°42' E 015°43'612.2
2018-Jul-13 19:30N 55°43' E 015°53'612.5
2018-Jul-13 19:01N 55°45' E 016°04'612.6
2018-Jul-13 18:30N 55°47' E 016°15'612.2
2018-Jul-13 18:00N 55°48' E 016°25'611.9
2018-Jul-13 17:30N 55°50' E 016°35'611.9
2018-Jul-13 17:00N 55°51' E 016°46'612.0
2018-Jul-13 16:30N 55°52' E 016°56'612.3
2018-Jul-13 16:00N 55°54' E 017°07'612.2
2018-Jul-13 15:29N 55°56' E 017°18'612.3
2018-Jul-13 15:00N 55°57' E 017°28'1212.3
2018-Jul-13 14:00N 56°02' E 017°48'612.5
2018-Jul-13 13:30N 56°06' E 017°57'612.5
2018-Jul-13 12:59N 56°09' E 018°07'1412.6
2018-Jul-13 11:54N 56°16' E 018°28'19912.5
2018-Jul-12 20:02N 59°08' E 021°37'112.7
2018-Jul-12 19:57N 59°09' E 021°38'612.8
2018-Jul-12 19:30N 59°13' E 021°46'612.6
2018-Jul-12 19:00N 59°16' E 021°56'1112.6
2018-Jul-12 18:10N 59°23' E 022°12'712.6
2018-Jul-12 17:36N 59°28' E 022°23'112.6
2018-Jul-12 17:29N 59°29' E 022°25'611.9
2018-Jul-12 17:00N 59°31' E 022°35'612.2
2018-Jul-12 16:30N 59°33' E 022°46'612.3
2018-Jul-12 16:00N 59°35' E 022°58'712.2
2018-Jul-12 15:27N 59°36' E 023°11'512.4
2018-Jul-12 15:00N 59°38' E 023°22'612.6
2018-Jul-12 14:30N 59°40' E 023°33'612.6
2018-Jul-12 14:00N 59°42' E 023°45'  
Track history (hours):
 
Tides and Currents Weather Stations Pressure Air Temp Water Temp Dewpoint Dewpoint Depression Visibility Wind Speed Wind Dir Waves Ship Positions

Hafnia Bering

Last reported at 2018-Jul-22 14:00 UTC. Time now 2018-Jul-22 14:30 UTC.
Position N 56°58' E 019°30'.

Length 184 m; draft 7.6 m.

Type: Tanker. MMSI: 566255000.

Date/timePositionNaut miles runAvg speedWind from/ knotsBaromVisibWave heightAir tempDewpointWater temp
2018-Jul-22 14:00N 56°58' E 019°30'612.2
2018-Jul-22 13:29N 56°53' E 019°24'2112.4
2018-Jul-22 11:48N 56°35' E 019°06'412.6
2018-Jul-22 11:29N 56°31' E 019°02'612.4
2018-Jul-22 11:00N 56°26' E 018°57'2812.0
2018-Jul-22 08:39N 56°07' E 018°18'212.2
2018-Jul-22 08:29N 56°06' E 018°15'612.2
2018-Jul-22 07:59N 56°03' E 018°06'812.2
2018-Jul-22 07:20N 55°59' E 017°54'412.2
2018-Jul-22 07:00N 55°57' E 017°47'1312.2
2018-Jul-22 05:55N 55°53' E 017°25'512.1
2018-Jul-22 05:30N 55°51' E 017°17'612.1
2018-Jul-22 05:00N 55°50' E 017°06'612.0
2018-Jul-22 04:30N 55°48' E 016°56'611.9
2018-Jul-22 04:00N 55°47' E 016°45'611.8
2018-Jul-22 03:30N 55°46' E 016°35'611.9
2018-Jul-22 03:00N 55°44' E 016°25'611.9
2018-Jul-22 02:30N 55°43' E 016°15'612.0
2018-Jul-22 02:00N 55°41' E 016°04'612.0
2018-Jul-22 01:30N 55°40' E 015°54'612.1
2018-Jul-22 01:00N 55°39' E 015°44'612.2
2018-Jul-22 00:30N 55°37' E 015°33'612.3
2018-Jul-22 00:00N 55°35' E 015°23'612.2
2018-Jul-21 23:30N 55°33' E 015°13'612.1
2018-Jul-21 23:00N 55°30' E 015°03'612.1
2018-Jul-21 22:30N 55°28' E 014°53'612.2
2018-Jul-21 22:00N 55°25' E 014°43'611.7
2018-Jul-21 21:30N 55°22' E 014°36'611.7
2018-Jul-21 21:00N 55°17' E 014°29'611.7
2018-Jul-21 20:30N 55°12' E 014°23'611.2
2018-Jul-21 20:00N 55°10' E 014°14'611.6
2018-Jul-21 19:30N 55°10' E 014°04'611.9
2018-Jul-21 19:00N 55°10' E 013°54'611.7
2018-Jul-21 18:30N 55°11' E 013°43'611.7
2018-Jul-21 18:00N 55°12' E 013°33'611.8
2018-Jul-21 17:30N 55°12' E 013°23'612.0
2018-Jul-21 17:00N 55°13' E 013°12'612.0
2018-Jul-21 16:30N 55°14' E 013°02'611.9
2018-Jul-21 16:00N 55°15' E 012°52'612.0
2018-Jul-21 15:30N 55°17' E 012°42'5 9.5
2018-Jul-21 15:00N 55°22' E 012°38'611.8
2018-Jul-21 14:30N 55°27' E 012°41'10 9.7
2018-Jul-21 13:30N 55°35' E 012°50'5 9.4
2018-Jul-21 13:00N 55°39' E 012°56'612.0
2018-Jul-21 12:29N 55°44' E 012°51'612.7
2018-Jul-21 12:00N 55°50' E 012°46'713.4
2018-Jul-21 11:31N 55°56' E 012°43'713.6
2018-Jul-21 11:01N 56°03' E 012°39'713.0
2018-Jul-21 10:30N 56°07' E 012°31'4 8.6
2018-Jul-21 10:00N 56°10' E 012°25'4 8.2
2018-Jul-21 09:30N 56°12' E 012°18'28 9.3
2018-Jul-21 06:28N 56°37' E 011°56'612.3
2018-Jul-21 05:59N 56°43' E 011°53'612.2
2018-Jul-21 05:30N 56°49' E 011°50'612.2
2018-Jul-21 05:00N 56°54' E 011°47'611.8
2018-Jul-21 04:30N 56°60' E 011°43'611.8
2018-Jul-21 04:00N 57°05' E 011°39'611.9
2018-Jul-21 03:31N 57°11' E 011°35'612.2
2018-Jul-21 03:00N 57°17' E 011°31'612.6
2018-Jul-21 02:31N 57°23' E 011°28'612.5
2018-Jul-21 02:00N 57°28' E 011°23'612.7
2018-Jul-21 01:31N 57°32' E 011°14'611.7
2018-Jul-21 01:00N 57°36' E 011°06'612.3
2018-Jul-21 00:30N 57°41' E 010°58'612.7
2018-Jul-21 00:00N 57°45' E 010°49'713.4
2018-Jul-20 23:31N 57°47' E 010°37'714.4
2018-Jul-20 23:00N 57°47' E 010°23'713.2
2018-Jul-20 22:30N 57°47' E 010°11'612.6
2018-Jul-20 22:00N 57°46' E 009°59'612.4
2018-Jul-20 21:30N 57°46' E 009°47'612.7
2018-Jul-20 21:00N 57°46' E 009°36'612.4
2018-Jul-20 20:30N 57°44' E 009°25'612.3
2018-Jul-20 20:00N 57°41' E 009°14'612.4
2018-Jul-20 19:30N 57°39' E 009°03'612.3
2018-Jul-20 19:00N 57°37' E 008°52'612.5
2018-Jul-20 18:30N 57°35' E 008°41'612.8
2018-Jul-20 18:00N 57°31' E 008°32'713.2
2018-Jul-20 17:30N 57°28' E 008°21'813.0
2018-Jul-20 16:54N 57°23' E 008°10'512.6
2018-Jul-20 16:30N 57°20' E 008°02'712.3
2018-Jul-20 15:58N 57°16' E 007°52'812.7
2018-Jul-20 15:18N 57°11' E 007°39'1712.8
2018-Jul-20 13:58N 57°01' E 007°14'612.7
2018-Jul-20 13:30N 56°56' E 007°09'2812.6
2018-Jul-20 11:18N 56°31' E 006°48'5212.4
2018-Jul-20 07:08N 55°44' E 006°08'212.6
2018-Jul-20 07:00N 55°42' E 006°07'712.7
2018-Jul-20 06:28N 55°36' E 006°02'812.5
2018-Jul-20 05:51N 55°29' E 005°57'412.3
2018-Jul-20 05:30N 55°25' E 005°54'612.4
2018-Jul-20 04:59N 55°19' E 005°50'612.6
2018-Jul-20 04:30N 55°14' E 005°46'612.6
2018-Jul-20 04:00N 55°08' E 005°42'712.6
2018-Jul-20 03:26N 55°01' E 005°37'812.3
2018-Jul-20 02:48N 54°54' E 005°32'1112.4
2018-Jul-20 01:52N 54°43' E 005°24'3812.4
2018-Jul-19 22:51N 54°11' E 004°51'512.4
2018-Jul-19 22:28N 54°08' E 004°45'1512.1
2018-Jul-19 21:13N 53°54' E 004°34'312.6
2018-Jul-19 21:00N 53°52' E 004°31'712.4
2018-Jul-19 20:27N 53°47' E 004°23'512.4
2018-Jul-19 20:00N 53°44' E 004°16'612.2
2018-Jul-19 19:29N 53°40' E 004°07'712.1
2018-Jul-19 18:55N 53°36' E 003°58'511.7
2018-Jul-19 18:30N 53°33' E 003°51'611.6
2018-Jul-19 18:00N 53°29' E 003°44'612.2
2018-Jul-19 17:29N 53°23' E 003°40'612.0
2018-Jul-19 16:59N 53°18' E 003°36'812.0
2018-Jul-19 16:19N 53°10' E 003°30'412.1
2018-Jul-19 16:00N 53°07' E 003°28'612.0
2018-Jul-19 15:29N 53°01' E 003°24'611.8
2018-Jul-19 15:00N 52°56' E 003°21'611.7
2018-Jul-19 14:30N 52°51' E 003°17'1111.2
2018-Jul-19 13:30N 52°41' E 003°09'510.9
2018-Jul-19 13:00N 52°36' E 003°05'510.9
2018-Jul-19 12:30N 52°31' E 003°01'611.5
2018-Jul-19 12:00N 52°26' E 003°07'611.9
2018-Jul-19 11:30N 52°22' E 003°14'612.1
2018-Jul-19 11:00N 52°17' E 003°21'612.2
2018-Jul-19 10:30N 52°13' E 003°27'611.9
2018-Jul-19 10:00N 52°09' E 003°34'4 7.0
2018-Jul-19 09:28N 52°09' E 003°40'0 0.0
2018-Jul-19 08:58N 52°09' E 003°40'0 0.0
2018-Jul-19 08:28N 52°09' E 003°40'0 0.0
2018-Jul-19 07:58N 52°09' E 003°40'0 0.0
2018-Jul-19 07:28N 52°09' E 003°40'0 0.0
2018-Jul-19 06:58N 52°09' E 003°40'0 0.2
2018-Jul-19 06:30N 52°09' E 003°40'3 6.9
2018-Jul-19 06:00N 52°07' E 003°44'510.9
2018-Jul-19 05:30N 52°04' E 003°52'510.0
2018-Jul-19 05:00N 52°01' E 003°59'510.2
2018-Jul-19 04:30N 51°58' E 004°05'1 1.7
2018-Jul-19 03:42N 51°57' E 004°06'0 0.0
2018-Jul-19 03:21N 51°57' E 004°06'0 0.0
2018-Jul-19 03:00N 51°57' E 004°06'0 0.0
2018-Jul-19 02:18N 51°57' E 004°06'0 0.0
2018-Jul-19 02:00N 51°57' E 004°06'0 0.0
2018-Jul-19 01:27N 51°57' E 004°06'0 0.0
2018-Jul-19 00:36N 51°57' E 004°06'0 0.0
2018-Jul-19 00:24N 51°57' E 004°06'0 0.0
2018-Jul-19 00:00N 51°57' E 004°06'0 0.0
2018-Jul-18 23:24N 51°57' E 004°06'0 0.0
2018-Jul-18 22:51N 51°57' E 004°06'0 0.0
2018-Jul-18 22:30N 51°57' E 004°06'0 0.0
2018-Jul-18 21:54N 51°57' E 004°06'0 0.0
2018-Jul-18 21:12N 51°57' E 004°06'0 0.0
2018-Jul-18 21:00N 51°57' E 004°06'0 0.0
2018-Jul-18 20:06N 51°57' E 004°06'0 0.0
2018-Jul-18 20:00N 51°57' E 004°06'0 0.0
2018-Jul-18 19:18N 51°57' E 004°06'0 0.0
2018-Jul-18 18:54N 51°57' E 004°06'0 0.0
2018-Jul-18 18:24N 51°57' E 004°06'0 0.0
2018-Jul-18 17:45N 51°57' E 004°06'0 0.0
2018-Jul-18 17:30N 51°57' E 004°06'0 0.0
2018-Jul-18 16:57N 51°57' E 004°06'0 0.0
2018-Jul-18 16:03N 51°57' E 004°06'0 0.0
2018-Jul-18 15:45N 51°57' E 004°06'0 0.0
2018-Jul-18 15:30N 51°57' E 004°06'0 0.0
2018-Jul-18 14:36N 51°57' E 004°06'0 0.0
2018-Jul-18 14:30N 51°57' E 004°06'0 0.0
2018-Jul-18 13:12N 51°57' E 004°06'0 0.0
2018-Jul-18 12:45N 51°57' E 004°06'0 0.0
2018-Jul-18 12:21N 51°57' E 004°06'0 0.0
2018-Jul-18 11:45N 51°57' E 004°06'0 0.0
2018-Jul-18 10:21N 51°57' E 004°06'0 0.0
2018-Jul-18 10:00N 51°57' E 004°06'0 0.0
2018-Jul-18 09:24N 51°57' E 004°06'0 0.0
2018-Jul-18 08:54N 51°57' E 004°06'0 0.0
2018-Jul-18 08:18N 51°57' E 004°06'0 0.0
2018-Jul-18 08:00N 51°57' E 004°06'0 0.0
2018-Jul-18 07:06N 51°57' E 004°06'0 0.1
2018-Jul-18 07:00N 51°57' E 004°06'0 0.0
2018-Jul-18 06:09N 51°57' E 004°06'0 0.0
2018-Jul-18 06:00N 51°57' E 004°06'0 0.0
2018-Jul-18 05:12N 51°57' E 004°06'0 0.0
2018-Jul-18 05:00N 51°57' E 004°06'0 0.0
2018-Jul-18 04:30N 51°57' E 004°06'0 0.0
2018-Jul-18 03:57N 51°57' E 004°06'0 0.0
2018-Jul-18 03:15N 51°57' E 004°06'0 0.0
2018-Jul-18 02:54N 51°57' E 004°06'0 0.0
2018-Jul-18 02:30N 51°57' E 004°06'0 0.0
2018-Jul-18 01:30N 51°57' E 004°06'0 0.0
2018-Jul-18 01:00N 51°57' E 004°06'0 0.0
2018-Jul-18 00:27N 51°57' E 004°06'0 0.0
2018-Jul-17 23:51N 51°57' E 004°06'0 0.0
2018-Jul-17 23:30N 51°57' E 004°06'0 0.0
2018-Jul-17 22:54N 51°57' E 004°06'0 0.0
2018-Jul-17 22:27N 51°57' E 004°06'0 0.0
2018-Jul-17 21:54N 51°57' E 004°06'0 0.0
2018-Jul-17 21:30N 51°57' E 004°06'0 0.0
2018-Jul-17 21:00N 51°57' E 004°06'0 0.0
2018-Jul-17 19:57N 51°57' E 004°06'0 0.0
2018-Jul-17 19:30N 51°57' E 004°06'0 0.0
2018-Jul-17 18:57N 51°57' E 004°06'0 0.0
2018-Jul-17 18:21N 51°57' E 004°06'0 0.0
2018-Jul-17 17:54N 51°57' E 004°06'0 0.0
2018-Jul-17 17:30N 51°57' E 004°06'0 0.0
2018-Jul-17 16:45N 51°57' E 004°06'0 0.0
2018-Jul-17 16:30N 51°57' E 004°06'0 0.0
2018-Jul-17 15:39N 51°57' E 004°06'0 0.0
2018-Jul-17 15:30N 51°57' E 004°06'0 0.0
2018-Jul-17 15:00N 51°57' E 004°06'0 0.0
2018-Jul-17 14:27N 51°57' E 004°06'0 0.0
2018-Jul-17 13:57N 51°57' E 004°06'0 0.0
2018-Jul-17 13:27N 51°57' E 004°06'0 0.0
2018-Jul-17 12:57N 51°57' E 004°06'0 0.0
2018-Jul-17 12:30N 51°57' E 004°06'0 0.0
2018-Jul-17 11:54N 51°57' E 004°06'0 0.0
2018-Jul-17 11:24N 51°57' E 004°06'0 0.0
2018-Jul-17 10:57N 51°57' E 004°06'0 0.0
2018-Jul-17 10:27N 51°57' E 004°06'0 0.0
2018-Jul-17 09:45N 51°57' E 004°06'0 0.0
2018-Jul-17 09:27N 51°57' E 004°06'0 0.0
2018-Jul-17 09:00N 51°57' E 004°06'0 0.0
2018-Jul-17 08:30N 51°57' E 004°06'0 0.0
2018-Jul-17 07:57N 51°57' E 004°06'0 0.0
2018-Jul-17 07:27N 51°57' E 004°06'0 0.0
2018-Jul-17 06:51N 51°57' E 004°06'0 0.0
2018-Jul-17 06:21N 51°57' E 004°06'0 0.0
2018-Jul-17 05:57N 51°57' E 004°06'0 0.0
2018-Jul-17 05:27N 51°57' E 004°06'0 0.0
2018-Jul-17 04:57N 51°57' E 004°06'0 0.0
2018-Jul-17 04:24N 51°57' E 004°06'0 0.0
2018-Jul-17 03:57N 51°57' E 004°06'0 0.0
2018-Jul-17 03:21N 51°57' E 004°06'0 0.0
2018-Jul-17 02:51N 51°57' E 004°06'0 0.0
2018-Jul-17 01:54N 51°57' E 004°06'0 0.0
2018-Jul-17 01:24N 51°57' E 004°06'0 0.0
2018-Jul-17 00:57N 51°57' E 004°06'0 0.1
2018-Jul-17 00:30N 51°57' E 004°06'4 4.2
2018-Jul-16 23:30N 51°60' E 004°01'611.1
2018-Jul-16 23:00N 52°00' E 003°52'4 8.3
2018-Jul-16 22:30N 52°01' E 003°45'611.3
2018-Jul-16 22:00N 52°04' E 003°38'5 9.8
2018-Jul-16 21:30N 52°07' E 003°31'4 8.7
2018-Jul-16 21:00N 52°09' E 003°25'611.3
2018-Jul-16 20:30N 52°13' E 003°19'612.0
2018-Jul-16 20:00N 52°19' E 003°15'611.7
2018-Jul-16 19:30N 52°24' E 003°10'711.5
2018-Jul-16 18:51N 52°31' E 003°04'411.0
2018-Jul-16 18:28N 52°34' E 003°01'5 9.8
2018-Jul-16 18:00N 52°39' E 003°03'510.8
2018-Jul-16 17:30N 52°44' E 003°07'510.8
2018-Jul-16 17:00N 52°48' E 003°12'610.8
2018-Jul-16 16:28N 52°54' E 003°15'511.1
2018-Jul-16 16:00N 52°59' E 003°18'611.6
2018-Jul-16 15:30N 53°04' E 003°20'712.2
2018-Jul-16 14:56N 53°11' E 003°24'712.6
2018-Jul-16 14:24N 53°17' E 003°27'4712.0
2018-Jul-16 10:31N 53°56' E 004°10'012.1
2018-Jul-16 10:31N 53°56' E 004°10'911.7
2018-Jul-16 09:45N 54°02' E 004°22'311.7
2018-Jul-16 09:30N 54°03' E 004°26'611.7
2018-Jul-16 09:00N 54°08' E 004°32'611.9
2018-Jul-16 08:30N 54°13' E 004°37'612.0
2018-Jul-16 08:01N 54°18' E 004°43'22712.4
2018-Jul-15 13:46N 57°26' E 008°28'311.9
2018-Jul-15 13:30N 57°29' E 008°31'2911.5
2018-Jul-15 11:00N 57°42' E 009°19'912.0
2018-Jul-15 10:14N 57°45' E 009°35'312.1
2018-Jul-15 10:00N 57°46' E 009°40'612.2
2018-Jul-15 09:30N 57°48' E 009°50'611.7
2018-Jul-15 09:00N 57°48' E 010°01'511.0
2018-Jul-15 08:30N 57°48' E 010°12'510.7
2018-Jul-15 08:01N 57°48' E 010°22'510.6
2018-Jul-15 07:31N 57°48' E 010°31'510.1
2018-Jul-15 07:00N 57°48' E 010°41'5 9.6
2018-Jul-15 06:31N 57°46' E 010°49'510.2
2018-Jul-15 06:00N 57°43' E 010°57'5 9.7
2018-Jul-15 05:30N 57°39' E 011°03'611.5
2018-Jul-15 05:00N 57°35' E 011°11'611.7
2018-Jul-15 04:30N 57°31' E 011°19'611.9
2018-Jul-15 04:00N 57°27' E 011°26'612.5
2018-Jul-15 03:31N 57°21' E 011°30'612.5
2018-Jul-15 03:01N 57°15' E 011°34'612.6
2018-Jul-15 02:30N 57°09' E 011°38'612.6
2018-Jul-15 02:01N 57°03' E 011°42'612.8
2018-Jul-15 01:31N 56°57' E 011°46'612.5
2018-Jul-15 01:01N 56°52' E 011°50'611.8
2018-Jul-15 00:31N 56°46' E 011°53'611.9
2018-Jul-15 00:01N 56°41' E 011°49'612.3
2018-Jul-14 23:30N 56°35' E 011°43'612.3
2018-Jul-14 22:59N 56°30' E 011°37'612.0
2018-Jul-14 22:28N 56°24' E 011°32'611.9
2018-Jul-14 21:59N 56°19' E 011°26'612.0
2018-Jul-14 21:30N 56°14' E 011°21'5210.8
2018-Jul-14 16:40N 55°23' E 011°01'412.0
2018-Jul-14 16:20N 55°19' E 011°03'612.1
2018-Jul-14 15:51N 55°14' E 011°06'411.7
2018-Jul-14 15:29N 55°10' E 011°03'612.1
2018-Jul-14 15:01N 55°04' E 011°02'611.8
2018-Jul-14 14:30N 54°58' E 010°58'1110.8
2018-Jul-14 13:31N 54°49' E 010°50'611.8
2018-Jul-14 13:00N 54°43' E 010°47'510.5
2018-Jul-14 12:31N 54°39' E 010°52'611.9
2018-Jul-14 12:01N 54°36' E 011°01'611.8
2018-Jul-14 11:31N 54°36' E 011°12'611.5
2018-Jul-14 11:01N 54°33' E 011°20'612.2
2018-Jul-14 10:30N 54°31' E 011°30'611.6
2018-Jul-14 10:00N 54°28' E 011°39'611.7
2018-Jul-14 09:30N 54°26' E 011°48'611.8
2018-Jul-14 09:01N 54°26' E 011°58'611.8
2018-Jul-14 08:30N 54°26' E 012°09'611.3
2018-Jul-14 08:01N 54°31' E 012°13'611.4
2018-Jul-14 07:31N 54°36' E 012°17'5 9.3
2018-Jul-14 07:00N 54°39' E 012°24'5 9.7
2018-Jul-14 06:30N 54°42' E 012°31'611.9
2018-Jul-14 06:00N 54°45' E 012°39'611.8
2018-Jul-14 05:31N 54°48' E 012°48'611.6
2018-Jul-14 05:01N 54°50' E 012°57'612.1
2018-Jul-14 04:31N 54°52' E 013°07'612.4
2018-Jul-14 04:00N 54°54' E 013°18'712.3
2018-Jul-14 03:28N 54°56' E 013°29'611.9
2018-Jul-14 02:55N 54°59' E 013°39'511.6
2018-Jul-14 02:30N 55°00' E 013°47'712.0
2018-Jul-14 01:58N 55°02' E 013°58'612.1
2018-Jul-14 01:30N 55°05' E 014°06'612.5
2018-Jul-14 01:01N 55°10' E 014°13'612.3
2018-Jul-14 00:31N 55°15' E 014°19'612.3
2018-Jul-14 00:00N 55°20' E 014°26'612.5
2018-Jul-13 23:30N 55°25' E 014°33'612.5
2018-Jul-13 23:00N 55°29' E 014°41'612.6
2018-Jul-13 22:31N 55°31' E 014°51'612.6
2018-Jul-13 22:00N 55°34' E 015°02'612.4
2018-Jul-13 21:30N 55°37' E 015°11'612.3
2018-Jul-13 21:01N 55°39' E 015°21'612.2
2018-Jul-13 20:30N 55°41' E 015°32'612.2
2018-Jul-13 20:00N 55°42' E 015°43'612.2
2018-Jul-13 19:30N 55°43' E 015°53'612.5
2018-Jul-13 19:01N 55°45' E 016°04'612.6
2018-Jul-13 18:30N 55°47' E 016°15'612.2
2018-Jul-13 18:00N 55°48' E 016°25'611.9
2018-Jul-13 17:30N 55°50' E 016°35'611.9
2018-Jul-13 17:00N 55°51' E 016°46'612.0
2018-Jul-13 16:30N 55°52' E 016°56'612.3
2018-Jul-13 16:00N 55°54' E 017°07'612.2
2018-Jul-13 15:29N 55°56' E 017°18'612.3
2018-Jul-13 15:00N 55°57' E 017°28'1212.3
2018-Jul-13 14:00N 56°02' E 017°48'612.5
2018-Jul-13 13:30N 56°06' E 017°57'612.5
2018-Jul-13 12:59N 56°09' E 018°07'1412.6
2018-Jul-13 11:54N 56°16' E 018°28'19912.5
2018-Jul-12 20:02N 59°08' E 021°37'112.7
2018-Jul-12 19:57N 59°09' E 021°38'612.8
2018-Jul-12 19:30N 59°13' E 021°46'612.6
2018-Jul-12 19:00N 59°16' E 021°56'1112.6
2018-Jul-12 18:10N 59°23' E 022°12'712.6
2018-Jul-12 17:36N 59°28' E 022°23'112.6
2018-Jul-12 17:29N 59°29' E 022°25'611.9
2018-Jul-12 17:00N 59°31' E 022°35'612.2
2018-Jul-12 16:30N 59°33' E 022°46'612.3
2018-Jul-12 16:00N 59°35' E 022°58'712.2
2018-Jul-12 15:27N 59°36' E 023°11'512.4
2018-Jul-12 15:00N 59°38' E 023°22'612.6
2018-Jul-12 14:30N 59°40' E 023°33'612.6
2018-Jul-12 14:00N 59°42' E 023°45'  

Dump ship's entire track history